createdAt,value
2018-03-23T00:02:23.015Z,16.37
2018-03-23T00:04:49.206Z,20.23
2018-03-23T00:07:15.468Z,14.30
2018-03-23T00:09:42.404Z,15.20
2018-03-23T00:12:08.639Z,19.50
2018-03-23T00:14:35.653Z,18.60
2018-03-23T00:17:01.916Z,17.10
2018-03-23T00:19:28.931Z,16.03
2018-03-23T00:21:55.213Z,16.40
2018-03-23T00:24:21.475Z,15.13
2018-03-23T00:26:47.818Z,17.40
2018-03-23T00:29:14.894Z,19.03
2018-03-23T00:31:41.896Z,12.63
2018-03-23T00:34:08.229Z,14.40
2018-03-23T00:36:34.861Z,16.77
2018-03-23T00:39:01.257Z,17.10
2018-03-23T00:41:27.459Z,12.43
2018-03-23T00:43:54.466Z,11.87
2018-03-23T00:46:20.716Z,9.13
2018-03-23T00:48:47.753Z,11.87
2018-03-23T00:51:14.861Z,14.37
2018-03-23T00:53:41.048Z,10.40
2018-03-23T00:56:08.062Z,11.70
2018-03-23T00:58:34.185Z,11.17
2018-03-23T01:01:00.518Z,12.63
2018-03-23T01:03:26.731Z,11.97
2018-03-23T01:05:52.955Z,11.57
2018-03-23T01:08:19.235Z,10.10
2018-03-23T01:10:46.305Z,11.60
2018-03-23T01:13:12.515Z,12.00
2018-03-23T01:15:38.757Z,10.47
2018-03-23T01:18:04.889Z,13.07
2018-03-23T01:20:31.056Z,10.80
2018-03-23T01:22:58.197Z,10.23
2018-03-23T01:25:25.190Z,14.37
2018-03-23T01:27:51.454Z,12.27
2018-03-23T01:30:17.681Z,14.53
2018-03-23T01:32:43.925Z,10.17
2018-03-23T01:35:10.112Z,12.73
2018-03-23T01:37:36.348Z,13.60
2018-03-23T01:40:02.539Z,11.10
2018-03-23T01:42:29.544Z,9.67
2018-03-23T01:44:55.721Z,10.53
2018-03-23T01:47:21.948Z,10.67
2018-03-23T01:49:48.133Z,11.87
2018-03-23T01:52:14.484Z,9.80
2018-03-23T01:54:41.405Z,12.13
2018-03-23T01:57:07.639Z,11.60
2018-03-23T01:59:33.993Z,13.50
2018-03-23T02:02:00.179Z,10.80
2018-03-23T02:04:27.972Z,12.37
2018-03-23T02:06:54.980Z,13.13
2018-03-23T02:09:21.249Z,13.10
2018-03-23T02:11:48.100Z,10.87
2018-03-23T02:14:14.197Z,14.17
2018-03-23T02:16:41.126Z,16.23
2018-03-23T02:19:07.239Z,15.70
2018-03-23T02:21:33.475Z,14.40
2018-03-23T02:23:59.816Z,14.10
2018-03-23T02:26:25.933Z,13.00
2018-03-23T02:28:52.937Z,12.33
2018-03-23T02:31:19.119Z,12.77
2018-03-23T02:33:45.284Z,13.47
2018-03-23T02:36:11.482Z,15.30
2018-03-23T02:38:38.417Z,10.30
2018-03-23T02:41:05.344Z,12.10
2018-03-23T02:43:32.276Z,9.50
2018-03-23T02:45:58.501Z,14.90
2018-03-23T02:48:24.680Z,10.57
2018-03-23T02:50:50.873Z,10.47
2018-03-23T02:53:17.025Z,11.77
2018-03-23T02:55:43.186Z,8.53
2018-03-23T02:58:09.452Z,8.53
2018-03-23T03:00:36.628Z,8.70
2018-03-23T03:03:03.534Z,10.97
2018-03-23T03:05:30.490Z,10.03
2018-03-23T03:07:57.515Z,6.93
2018-03-23T03:10:23.609Z,7.47
2018-03-23T03:12:49.786Z,8.30
2018-03-23T03:15:16.009Z,8.33
2018-03-23T03:17:42.164Z,6.97
2018-03-23T03:20:08.354Z,8.60
2018-03-23T03:22:35.234Z,11.53
2018-03-23T03:25:01.405Z,7.77
2018-03-23T03:27:27.543Z,7.80
2018-03-23T03:29:55.199Z,9.20
2018-03-23T03:32:21.347Z,7.50
2018-03-23T03:34:48.277Z,9.60
2018-03-23T03:37:14.578Z,8.73
2018-03-23T03:39:40.731Z,7.77
2018-03-23T03:42:08.394Z,9.60
2018-03-23T03:44:34.629Z,10.73
2018-03-23T03:47:01.588Z,8.80
2018-03-23T03:49:27.894Z,9.13
2018-03-23T03:51:54.762Z,9.90
2018-03-23T03:54:21.012Z,9.07
2018-03-23T03:56:47.193Z,9.07
2018-03-23T03:59:13.375Z,10.60
2018-03-23T04:01:39.626Z,11.57
2018-03-23T04:04:07.623Z,10.03
2018-03-23T04:06:35.145Z,12.77
2018-03-23T04:09:01.304Z,9.97
2018-03-23T04:11:28.160Z,10.90
2018-03-23T04:13:54.334Z,11.23
2018-03-23T04:16:20.455Z,11.93
2018-03-23T04:18:46.604Z,11.17
2018-03-23T04:21:12.771Z,13.97
2018-03-23T04:23:38.934Z,11.67
2018-03-23T04:26:05.105Z,10.73
2018-03-23T04:28:32.151Z,11.73
2018-03-23T04:30:59.090Z,11.57
2018-03-23T04:33:25.990Z,12.63
2018-03-23T04:35:52.157Z,14.90
2018-03-23T04:38:18.976Z,10.87
2018-03-23T04:40:45.202Z,11.10
2018-03-23T04:43:11.426Z,11.57
2018-03-23T04:45:38.384Z,11.70
2018-03-23T04:48:05.425Z,16.93
2018-03-23T04:50:32.307Z,13.27
2018-03-23T04:52:58.485Z,12.20
2018-03-23T04:55:24.630Z,11.97
2018-03-23T04:57:51.695Z,11.73
2018-03-23T05:00:17.996Z,13.10
2018-03-23T05:02:44.956Z,14.43
2018-03-23T05:05:11.872Z,14.20
2018-03-23T05:07:37.994Z,12.70
2018-03-23T05:10:04.949Z,12.50
2018-03-23T05:12:31.898Z,10.00
2018-03-23T05:14:58.894Z,10.33
2018-03-23T05:17:25.091Z,13.70
2018-03-23T05:19:51.374Z,13.27
2018-03-23T05:22:19.133Z,13.13
2018-03-23T05:24:45.428Z,11.27
2018-03-23T05:27:11.695Z,15.47
2018-03-23T05:29:37.876Z,16.50
2018-03-23T05:32:04.230Z,13.90
2018-03-23T05:34:30.510Z,12.63
2018-03-23T05:36:57.427Z,16.20
2018-03-23T05:39:23.737Z,14.63
2018-03-23T05:41:49.936Z,17.90
2018-03-23T05:44:16.126Z,21.53
2018-03-23T05:46:42.984Z,22.63
2018-03-23T05:49:09.124Z,21.53
2018-03-23T05:51:35.421Z,17.20
2018-03-23T05:54:03.063Z,19.67
2018-03-23T05:56:29.562Z,18.90
2018-03-23T05:58:55.760Z,17.00
2018-03-23T06:01:21.926Z,19.17
2018-03-23T06:03:48.062Z,14.00
2018-03-23T06:06:14.352Z,16.50
2018-03-23T06:08:40.528Z,16.20
2018-03-23T06:11:07.457Z,19.47
2018-03-23T06:13:33.580Z,18.53
2018-03-23T06:15:59.815Z,19.87
2018-03-23T06:18:27.879Z,17.17
2018-03-23T06:20:54.310Z,18.30
2018-03-23T06:23:20.504Z,17.30
2018-03-23T06:25:46.831Z,15.60
2018-03-23T06:28:13.072Z,17.87
2018-03-23T06:30:39.236Z,17.13
2018-03-23T06:33:06.379Z,19.03
2018-03-23T06:35:33.256Z,15.93
2018-03-23T06:37:59.539Z,17.30
2018-03-23T06:40:25.940Z,16.80
2018-03-23T06:42:52.082Z,19.40
2018-03-23T06:45:18.339Z,14.93
2018-03-23T06:47:44.554Z,17.40
2018-03-23T06:50:11.501Z,17.33
2018-03-23T06:52:37.751Z,16.70
2018-03-23T06:55:04.741Z,15.63
2018-03-23T06:57:31.663Z,14.30
2018-03-23T06:59:57.919Z,16.83
2018-03-23T07:02:24.065Z,12.30
2018-03-23T07:04:50.278Z,15.07
2018-03-23T07:07:16.641Z,13.03
2018-03-23T07:09:43.646Z,11.17
2018-03-23T07:12:10.070Z,12.13
2018-03-23T07:14:36.243Z,13.40
2018-03-23T07:17:03.176Z,13.67
2018-03-23T07:19:30.015Z,13.73
2018-03-23T07:21:56.932Z,11.63
2018-03-23T07:24:24.664Z,12.00
2018-03-23T07:26:51.022Z,13.00
2018-03-23T07:29:17.223Z,12.50
2018-03-23T07:31:43.415Z,15.10
2018-03-23T07:34:10.883Z,11.57
2018-03-23T07:36:37.141Z,13.47
2018-03-23T07:39:03.448Z,10.37
2018-03-23T07:41:29.709Z,14.33
2018-03-23T07:43:55.986Z,11.80
2018-03-23T07:46:22.945Z,11.13
2018-03-23T07:48:49.246Z,9.63
2018-03-23T07:51:16.222Z,11.40
2018-03-23T07:53:42.395Z,9.43
2018-03-23T07:56:08.915Z,10.10
2018-03-23T07:58:35.439Z,9.23
2018-03-23T08:01:01.697Z,9.23
2018-03-23T08:03:28.664Z,10.40
2018-03-23T08:05:54.884Z,10.90
2018-03-23T08:08:21.878Z,8.63
2018-03-23T08:10:48.065Z,12.13
2018-03-23T08:13:14.594Z,8.93
2018-03-23T08:15:55.886Z,9.07
2018-03-23T08:18:22.037Z,8.50
2018-03-23T08:20:48.342Z,8.10
2018-03-23T08:23:14.786Z,6.23
2018-03-23T08:25:40.970Z,6.33
2018-03-23T08:28:07.925Z,5.97
2018-03-23T08:30:34.920Z,7.70
2018-03-23T08:33:01.187Z,7.93
2018-03-23T08:35:28.242Z,6.27
2018-03-23T08:37:55.195Z,7.57
2018-03-23T08:40:22.215Z,7.03
2018-03-23T08:42:48.560Z,8.23
2018-03-23T08:45:14.921Z,7.33
2018-03-23T08:47:41.169Z,10.00
2018-03-23T08:50:07.387Z,10.83
2018-03-23T08:52:33.547Z,9.43
2018-03-23T08:54:59.969Z,12.27
2018-03-23T08:57:26.881Z,8.63
2018-03-23T08:59:53.221Z,19.10
2018-03-23T09:02:19.573Z,7.37
2018-03-23T09:04:45.890Z,26.00
2018-03-23T09:07:12.010Z,28.37
2018-03-23T09:09:38.505Z,14.67
2018-03-23T09:12:05.865Z,10.80
2018-03-23T09:14:32.122Z,9.50
2018-03-23T09:16:58.331Z,7.80
2018-03-23T09:19:25.383Z,10.00
2018-03-23T09:21:51.567Z,10.33
2018-03-23T09:24:18.532Z,6.20
2018-03-23T09:26:44.710Z,7.20
2018-03-23T09:29:10.836Z,12.47
2018-03-23T09:31:38.788Z,9.10
2018-03-23T09:34:05.198Z,10.00
2018-03-23T09:36:31.516Z,7.87
2018-03-23T09:38:57.736Z,9.00
2018-03-23T09:41:23.944Z,7.80
2018-03-23T09:43:50.917Z,5.10
2018-03-23T09:46:17.266Z,7.30
2018-03-23T09:48:43.533Z,7.77
2018-03-23T09:51:11.401Z,6.97
2018-03-23T09:53:38.446Z,9.67
2018-03-23T09:56:05.335Z,8.23
2018-03-23T09:58:31.606Z,14.20
2018-03-23T10:00:57.809Z,9.60
2018-03-23T10:03:23.989Z,8.03
2018-03-23T10:05:50.157Z,6.80
2018-03-23T10:08:16.321Z,7.27
2018-03-23T10:10:43.358Z,12.57
2018-03-23T10:13:10.469Z,8.17
2018-03-23T10:15:36.588Z,10.00
2018-03-23T10:18:02.767Z,12.00
2018-03-23T10:20:29.707Z,17.73
2018-03-23T10:22:56.611Z,14.03
2018-03-23T10:25:22.782Z,8.00
2018-03-23T10:27:49.681Z,7.77
2018-03-23T10:30:15.932Z,7.80
2018-03-23T10:32:42.082Z,11.40
2018-03-23T10:35:09.004Z,10.93
2018-03-23T10:37:35.983Z,8.63
2018-03-23T10:40:02.194Z,9.67
2018-03-23T10:42:29.202Z,8.17
2018-03-23T10:44:55.332Z,7.47
2018-03-23T10:47:21.497Z,5.60
2018-03-23T10:49:48.392Z,10.03
2018-03-23T10:52:14.567Z,11.67
2018-03-23T10:54:40.681Z,10.83
2018-03-23T10:57:07.658Z,8.60
2018-03-23T10:59:34.012Z,14.03
2018-03-23T11:02:06.551Z,6.90
2018-03-23T11:04:32.741Z,6.47
2018-03-23T11:06:59.651Z,6.37
2018-03-23T11:09:25.873Z,7.67
2018-03-23T11:11:51.987Z,9.13
2018-03-23T11:14:18.132Z,6.30
2018-03-23T11:16:44.273Z,5.63
2018-03-23T11:19:11.208Z,5.93
2018-03-23T11:21:37.391Z,4.50
2018-03-23T11:24:03.577Z,6.30
2018-03-23T11:26:30.584Z,3.73
2018-03-23T11:28:57.098Z,5.60
2018-03-23T11:31:23.378Z,6.13
2018-03-23T11:33:49.552Z,7.73
2018-03-23T11:36:15.732Z,5.30
2018-03-23T11:38:41.950Z,11.70
2018-03-23T11:41:08.123Z,4.37
2018-03-23T11:43:34.562Z,4.90
2018-03-23T11:46:00.791Z,4.40
2018-03-23T11:48:27.252Z,3.87
2018-03-23T11:50:53.598Z,6.43
2018-03-23T11:53:20.551Z,8.03
2018-03-23T11:55:46.696Z,5.90
2018-03-23T11:58:13.827Z,4.93
2018-03-23T12:00:40.041Z,4.97
2018-03-23T12:03:06.312Z,5.70
2018-03-23T12:05:32.526Z,5.53
2018-03-23T12:07:59.459Z,4.03
2018-03-23T12:10:26.691Z,6.20
2018-03-23T12:12:53.660Z,6.07
2018-03-23T12:15:20.588Z,7.77
2018-03-23T12:17:46.864Z,3.90
2018-03-23T12:20:13.019Z,7.73
2018-03-23T12:22:39.163Z,5.80
2018-03-23T12:25:05.372Z,5.63
2018-03-23T12:27:31.573Z,5.93
2018-03-23T12:29:57.700Z,8.60
2018-03-23T12:32:23.904Z,6.70
2018-03-23T12:34:50.175Z,17.00
2018-03-23T12:37:16.394Z,5.03
2018-03-23T12:39:42.635Z,11.87
2018-03-23T12:42:08.851Z,6.97
2018-03-23T12:44:35.187Z,7.70
2018-03-23T12:47:01.356Z,5.10
2018-03-23T12:49:27.762Z,4.20
2018-03-23T12:51:54.066Z,11.00
2018-03-23T12:54:20.280Z,5.90
2018-03-23T12:56:46.530Z,4.70
2018-03-23T12:59:12.830Z,9.33
2018-03-23T13:01:39.095Z,7.53
2018-03-23T13:04:06.089Z,5.03
2018-03-23T13:06:32.248Z,4.17
2018-03-23T13:08:58.434Z,5.50
2018-03-23T13:11:24.881Z,9.13
2018-03-23T13:13:50.999Z,4.00
2018-03-23T13:16:17.210Z,6.40
2018-03-23T13:18:43.581Z,3.70
2018-03-23T13:21:09.743Z,11.70
2018-03-23T13:23:36.793Z,4.77
2018-03-23T13:26:03.683Z,8.93
2018-03-23T13:28:29.878Z,8.67
2018-03-23T13:30:56.189Z,7.10
2018-03-23T13:33:22.424Z,6.47
2018-03-23T13:35:49.434Z,6.77
2018-03-23T13:38:15.869Z,6.23
2018-03-23T13:40:42.859Z,7.00
2018-03-23T13:43:24.086Z,4.40
2018-03-23T13:45:50.614Z,5.57
2018-03-23T13:48:16.917Z,6.63
2018-03-23T13:50:43.307Z,10.47
2018-03-23T13:53:10.304Z,6.60
2018-03-23T13:55:36.589Z,8.03
2018-03-23T13:58:03.662Z,12.03
2018-03-23T14:00:36.019Z,6.00
2018-03-23T14:03:02.203Z,9.10
2018-03-23T14:05:28.563Z,12.03
2018-03-23T14:07:55.586Z,14.30
2018-03-23T14:10:21.896Z,6.50
2018-03-23T14:12:48.802Z,7.57
2018-03-23T14:15:15.103Z,10.50
2018-03-23T14:17:42.054Z,7.60
2018-03-23T14:20:08.299Z,9.50
2018-03-23T14:22:34.691Z,21.43
2018-03-23T14:25:01.000Z,7.30
2018-03-23T14:27:27.189Z,8.53
2018-03-23T14:29:53.450Z,6.20
2018-03-23T14:32:20.557Z,11.43
2018-03-23T14:34:46.789Z,4.33
2018-03-23T14:37:13.033Z,8.37
2018-03-23T14:39:40.278Z,5.17
2018-03-23T14:42:06.632Z,5.83
2018-03-23T14:44:32.932Z,8.40
2018-03-23T14:46:59.193Z,6.60
2018-03-23T14:49:25.409Z,16.23
2018-03-23T14:51:51.684Z,7.20
2018-03-23T14:54:18.615Z,9.23
2018-03-23T14:56:45.688Z,5.93
2018-03-23T14:59:15.072Z,6.70
2018-03-23T15:01:42.260Z,10.67
2018-03-23T15:04:08.618Z,9.87
2018-03-23T15:06:35.294Z,12.57
2018-03-23T15:09:02.463Z,12.80
2018-03-23T15:11:29.376Z,10.40
2018-03-23T15:16:54.484Z,12.03
2018-03-23T15:19:21.474Z,10.60
2018-03-23T15:21:47.723Z,10.03
2018-03-23T15:24:13.997Z,13.80
2018-03-23T15:26:40.941Z,12.83
2018-03-23T15:29:07.918Z,68.83
2018-03-23T15:31:35.126Z,25.70
2018-03-23T15:34:01.749Z,19.83
2018-03-23T15:36:27.961Z,23.83
2018-03-23T15:38:54.214Z,19.00
2018-03-23T15:41:20.477Z,18.80
2018-03-23T15:43:46.826Z,21.60
2018-03-23T15:46:13.124Z,23.53
2018-03-23T15:48:40.195Z,19.93
2018-03-23T15:51:06.519Z,27.47
2018-03-23T15:53:32.922Z,13.90
2018-03-23T15:56:00.036Z,13.80
2018-03-23T15:58:26.442Z,16.20
2018-03-23T16:00:52.863Z,14.50
2018-03-23T16:03:19.259Z,13.10
2018-03-23T16:05:46.179Z,15.23
2018-03-23T16:08:12.346Z,18.60
2018-03-23T16:10:39.286Z,16.70
2018-03-23T16:13:06.393Z,17.50
2018-03-23T16:15:32.647Z,21.47
2018-03-23T16:17:59.734Z,15.07
2018-03-23T16:20:25.928Z,16.33
2018-03-23T16:22:52.890Z,14.57
2018-03-23T16:25:19.162Z,14.37
2018-03-23T16:27:45.494Z,13.03
2018-03-23T16:30:11.735Z,16.53
2018-03-23T16:32:38.685Z,14.40
2018-03-23T16:35:04.919Z,11.70
2018-03-23T16:37:38.400Z,14.70
2018-03-23T16:40:05.288Z,13.60
2018-03-23T16:42:31.499Z,17.30
2018-03-23T16:44:58.493Z,13.77
2018-03-23T16:47:24.659Z,12.60
2018-03-23T16:49:51.787Z,11.50
2018-03-23T16:52:17.988Z,12.90
2018-03-23T16:54:44.220Z,13.90
2018-03-23T16:57:10.507Z,15.27
2018-03-23T16:59:36.843Z,16.40
2018-03-23T17:02:03.282Z,12.30
2018-03-23T17:04:29.489Z,13.70
2018-03-23T17:06:56.606Z,14.17
2018-03-23T17:09:22.818Z,16.17
2018-03-23T17:11:49.061Z,16.03
2018-03-23T17:14:15.298Z,10.77
2018-03-23T17:16:41.514Z,13.80
2018-03-23T17:19:07.791Z,12.63
2018-03-23T17:21:34.522Z,14.10
2018-03-23T17:24:00.931Z,11.07
2018-03-23T17:26:28.060Z,14.43
2018-03-23T17:28:54.373Z,12.90
2018-03-23T17:31:20.642Z,10.80
2018-03-23T17:33:47.671Z,12.27
2018-03-23T17:36:14.074Z,13.37
2018-03-23T17:38:40.458Z,10.37
2018-03-23T17:41:07.448Z,12.00
2018-03-23T17:43:33.858Z,10.27
2018-03-23T17:46:00.105Z,11.93
2018-03-23T17:48:26.545Z,16.77
2018-03-23T17:50:52.798Z,25.20
2018-03-23T17:53:19.052Z,22.80
2018-03-23T17:55:45.381Z,23.40
2018-03-23T17:58:11.723Z,12.17
2018-03-23T18:00:38.026Z,15.80
2018-03-23T18:03:04.974Z,15.63
2018-03-23T18:05:31.931Z,15.20
2018-03-23T18:07:58.327Z,15.77
2018-03-23T18:10:25.278Z,15.60
2018-03-23T18:12:52.248Z,14.13
2018-03-23T18:15:18.645Z,16.33
2018-03-23T18:17:45.609Z,15.53
2018-03-23T18:20:12.721Z,12.83
2018-03-23T18:22:40.663Z,12.43
2018-03-23T18:25:06.960Z,15.63
2018-03-23T18:27:33.706Z,14.70
2018-03-23T18:29:59.969Z,19.90
2018-03-23T18:32:26.258Z,18.30
2018-03-23T18:34:52.505Z,22.60
2018-03-23T18:37:18.756Z,16.70
2018-03-23T18:39:45.045Z,26.27
2018-03-23T18:42:11.279Z,31.73
2018-03-23T18:44:37.490Z,55.83
2018-03-23T18:47:04.415Z,35.20
2018-03-23T18:49:30.888Z,51.20
2018-03-23T18:51:57.253Z,51.93
2018-03-23T18:54:23.545Z,49.10
2018-03-23T18:56:49.760Z,34.20
2018-03-23T18:59:16.283Z,34.60
2018-03-23T19:01:43.256Z,15.03
2018-03-23T19:04:09.539Z,9.67
2018-03-23T19:06:35.901Z,19.60
2018-03-23T19:09:02.132Z,23.87
2018-03-23T19:11:28.601Z,26.17
2018-03-23T19:13:54.794Z,15.93
2018-03-23T19:16:21.119Z,25.40
2018-03-23T19:18:47.455Z,20.67
2018-03-23T19:21:13.770Z,17.80
2018-03-23T19:23:40.071Z,23.30
2018-03-23T19:26:06.277Z,22.00
2018-03-23T19:28:32.538Z,17.03
2018-03-23T19:30:59.648Z,21.80
2018-03-23T19:33:25.930Z,23.67
2018-03-23T19:35:52.297Z,28.00
2018-03-23T19:38:18.643Z,28.60
2018-03-23T19:40:44.901Z,24.93
2018-03-23T19:43:11.931Z,25.30
2018-03-23T19:45:38.907Z,21.30
2018-03-23T19:48:06.182Z,20.60
2018-03-23T19:50:32.637Z,27.13
2018-03-23T19:52:58.909Z,28.20
2018-03-23T19:55:25.944Z,26.17
2018-03-23T19:57:53.060Z,26.53
2018-03-23T20:00:19.372Z,22.30
2018-03-23T20:02:45.850Z,20.50
2018-03-23T20:05:12.901Z,20.00
2018-03-23T20:07:39.940Z,17.30
2018-03-23T20:10:06.925Z,20.27
2018-03-23T20:12:33.339Z,19.87
2018-03-23T20:14:59.687Z,17.23
2018-03-23T20:17:32.088Z,19.20
2018-03-23T20:19:59.186Z,15.87
2018-03-23T20:22:25.597Z,21.13
2018-03-23T20:24:52.547Z,42.33
2018-03-23T20:27:25.591Z,39.80
2018-03-23T20:29:51.844Z,37.40
2018-03-23T20:32:24.219Z,34.20
2018-03-23T20:34:50.444Z,34.60
2018-03-23T20:37:17.555Z,42.27
2018-03-23T20:39:43.770Z,35.43
2018-03-23T20:42:10.073Z,28.60
2018-03-23T20:44:37.352Z,32.67
2018-03-23T20:47:03.713Z,30.77
2018-03-23T20:49:29.893Z,34.90
2018-03-23T20:51:56.163Z,26.20
2018-03-23T20:54:22.472Z,49.30
2018-03-23T20:56:48.767Z,49.33
2018-03-23T20:59:16.384Z,45.50
2018-03-23T21:01:42.783Z,34.60
2018-03-23T21:04:09.081Z,31.40
2018-03-23T21:06:37.072Z,43.60
2018-03-23T21:09:03.436Z,38.03
2018-03-23T21:11:29.732Z,33.57
2018-03-23T21:13:56.060Z,16.87
2018-03-23T21:16:22.337Z,19.27
2018-03-23T21:18:49.408Z,19.50
2018-03-23T21:21:15.681Z,29.43
2018-03-23T21:23:42.041Z,22.60
2018-03-23T21:26:08.301Z,49.83
2018-03-23T21:28:34.625Z,57.20
2018-03-23T21:31:01.693Z,42.63
2018-03-23T21:33:28.161Z,44.77
2018-03-23T21:35:54.488Z,50.00
2018-03-23T21:38:20.793Z,37.80
2018-03-23T21:40:47.029Z,20.60
2018-03-23T21:43:13.503Z,27.47
2018-03-23T21:45:40.225Z,17.57
2018-03-23T21:48:06.460Z,17.40
2018-03-23T21:50:34.719Z,21.50
2018-03-23T21:53:00.926Z,24.00
2018-03-23T21:55:27.284Z,24.33
2018-03-23T21:57:55.092Z,27.90
2018-03-23T22:00:21.428Z,27.47
2018-03-23T22:02:47.648Z,30.60
2018-03-23T22:05:14.033Z,30.67
2018-03-23T22:07:41.075Z,27.60
2018-03-23T22:10:08.053Z,28.10
2018-03-23T22:12:35.106Z,26.67
2018-03-23T22:15:02.252Z,25.40
2018-03-23T22:17:29.250Z,19.53
2018-03-23T22:19:55.599Z,20.10
2018-03-23T22:22:23.382Z,26.13
2018-03-23T22:24:50.535Z,26.10
2018-03-23T22:27:17.640Z,27.50
2018-03-23T22:29:44.075Z,24.43
2018-03-23T22:32:10.398Z,27.23
2018-03-23T22:34:36.946Z,27.83
2018-03-23T22:37:03.476Z,26.97
2018-03-23T22:39:29.746Z,25.40
2018-03-23T22:41:56.868Z,23.60
2018-03-23T22:44:23.495Z,22.00
2018-03-23T22:46:49.816Z,28.03
2018-03-23T22:49:17.485Z,27.37
2018-03-23T22:51:45.148Z,28.90
2018-03-23T22:54:11.596Z,25.30
2018-03-23T22:56:38.611Z,85.77
2018-03-23T22:59:04.902Z,85.53
2018-03-23T23:01:31.226Z,105.30
2018-03-23T23:03:57.495Z,97.40
2018-03-23T23:06:23.770Z,69.40
2018-03-23T23:08:50.982Z,76.10
2018-03-23T23:11:17.302Z,85.30
2018-03-23T23:13:43.503Z,65.77
2018-03-23T23:16:09.872Z,73.43
2018-03-23T23:18:37.645Z,50.70
2018-03-23T23:21:03.842Z,44.90
2018-03-23T23:23:30.118Z,38.83
2018-03-23T23:25:57.064Z,23.97
2018-03-23T23:28:23.246Z,33.90
2018-03-23T23:30:49.576Z,34.10
2018-03-23T23:33:16.443Z,29.13
2018-03-23T23:35:42.626Z,24.00
2018-03-23T23:38:08.967Z,20.07
2018-03-23T23:40:35.192Z,18.80
2018-03-23T23:43:01.432Z,19.73
2018-03-23T23:45:27.893Z,19.33
2018-03-23T23:47:54.330Z,14.90
2018-03-23T23:50:21.548Z,13.23
2018-03-23T23:52:47.808Z,22.23
2018-03-23T23:55:21.930Z,16.17
2018-03-23T23:57:48.227Z,28.23
